Terminal Aerodrome Forecast
Issued by NWS Bismarck, ND

Home | Current Version | Previous Version | Graphics & Text | Print | Product List | Glossary On
Versions: 1 2 3 4 5 6 7 8 9 10 11 12 13 14 15
000
FTUS43 KBIS 131628 AAB
TAFBIS
TAF AMD
KBIS 131628Z 1316/1412 14010KT P6SM SCT015
      TEMPO 1316/1318 BKN009
     FM131800 18014KT P6SM SCT060
     FM132200 19008KT P6SM SKC
     FM140200 23004KT P6SM SKC=

USA.gov is the U.S. government's official web portal to all federal, state and local government web resources and services.